sensor_id;sensor_type;location;lat;lon;timestamp;temperature;humidity
62363;DHT22;48396;48.426;1.500;2023-06-14T00:00:13;26.20;52.30
62363;DHT22;48396;48.426;1.500;2023-06-14T00:02:40;26.20;52.40
62363;DHT22;48396;48.426;1.500;2023-06-14T00:05:07;26.10;52.50
62363;DHT22;48396;48.426;1.500;2023-06-14T00:07:40;26.10;52.70
62363;DHT22;48396;48.426;1.500;2023-06-14T00:10:10;26.00;52.80
62363;DHT22;48396;48.426;1.500;2023-06-14T00:12:36;26.00;52.80
62363;DHT22;48396;48.426;1.500;2023-06-14T00:15:02;26.00;52.80
62363;DHT22;48396;48.426;1.500;2023-06-14T00:17:28;26.00;53.00
62363;DHT22;48396;48.426;1.500;2023-06-14T00:19:56;25.90;52.90
62363;DHT22;48396;48.426;1.500;2023-06-14T00:22:22;25.90;53.00
62363;DHT22;48396;48.426;1.500;2023-06-14T00:24:50;25.90;53.20
62363;DHT22;48396;48.426;1.500;2023-06-14T00:27:16;25.80;53.20
62363;DHT22;48396;48.426;1.500;2023-06-14T00:29:41;25.70;53.40
62363;DHT22;48396;48.426;1.500;2023-06-14T00:32:07;25.60;53.40
62363;DHT22;48396;48.426;1.500;2023-06-14T00:34:33;25.60;53.50
62363;DHT22;48396;48.426;1.500;2023-06-14T00:36:59;25.60;53.50
62363;DHT22;48396;48.426;1.500;2023-06-14T00:39:25;25.60;53.50
62363;DHT22;48396;48.426;1.500;2023-06-14T00:41:50;25.60;53.60
62363;DHT22;48396;48.426;1.500;2023-06-14T00:44:16;25.60;53.80
62363;DHT22;48396;48.426;1.500;2023-06-14T00:46:42;25.50;53.90
62363;DHT22;48396;48.426;1.500;2023-06-14T00:49:09;25.40;54.00
62363;DHT22;48396;48.426;1.500;2023-06-14T00:51:35;25.40;54.00
62363;DHT22;48396;48.426;1.500;2023-06-14T00:54:03;25.40;54.00
62363;DHT22;48396;48.426;1.500;2023-06-14T00:56:28;25.40;54.20
62363;DHT22;48396;48.426;1.500;2023-06-14T00:58:55;25.30;54.30
62363;DHT22;48396;48.426;1.500;2023-06-14T01:01:21;25.30;54.30
62363;DHT22;48396;48.426;1.500;2023-06-14T01:03:47;25.30;54.40
62363;DHT22;48396;48.426;1.500;2023-06-14T01:09:18;25.20;54.50
62363;DHT22;48396;48.426;1.500;2023-06-14T01:12:07;25.20;54.60
62363;DHT22;48396;48.426;1.500;2023-06-14T01:14:34;25.10;54.70
62363;DHT22;48396;48.426;1.500;2023-06-14T01:17:01;25.10;54.80
62363;DHT22;48396;48.426;1.500;2023-06-14T01:19:28;25.00;54.80
62363;DHT22;48396;48.426;1.500;2023-06-14T01:21:55;25.00;54.90
62363;DHT22;48396;48.426;1.500;2023-06-14T01:24:20;25.00;55.10
62363;DHT22;48396;48.426;1.500;2023-06-14T01:26:53;24.90;55.30
62363;DHT22;48396;48.426;1.500;2023-06-14T01:29:22;24.90;55.30
62363;DHT22;48396;48.426;1.500;2023-06-14T01:31:49;24.80;55.40
62363;DHT22;48396;48.426;1.500;2023-06-14T01:34:15;24.80;55.40
62363;DHT22;48396;48.426;1.500;2023-06-14T01:36:43;24.80;55.60
62363;DHT22;48396;48.426;1.500;2023-06-14T01:39:12;24.80;55.80
62363;DHT22;48396;48.426;1.500;2023-06-14T01:41:40;24.70;55.80
62363;DHT22;48396;48.426;1.500;2023-06-14T01:44:06;24.70;55.80
62363;DHT22;48396;48.426;1.500;2023-06-14T01:46:33;24.70;56.00
62363;DHT22;48396;48.426;1.500;2023-06-14T01:48:59;24.60;56.00
62363;DHT22;48396;48.426;1.500;2023-06-14T01:51:24;24.60;56.10
62363;DHT22;48396;48.426;1.500;2023-06-14T01:53:50;24.60;56.30
62363;DHT22;48396;48.426;1.500;2023-06-14T01:56:16;24.60;56.40
62363;DHT22;48396;48.426;1.500;2023-06-14T01:58:42;24.60;56.40
62363;DHT22;48396;48.426;1.500;2023-06-14T02:01:07;24.50;56.50
62363;DHT22;48396;48.426;1.500;2023-06-14T02:03:33;24.50;56.70
62363;DHT22;48396;48.426;1.500;2023-06-14T02:05:59;24.50;56.70
62363;DHT22;48396;48.426;1.500;2023-06-14T02:08:25;24.40;56.80
62363;DHT22;48396;48.426;1.500;2023-06-14T02:10:51;24.50;56.90
62363;DHT22;48396;48.426;1.500;2023-06-14T02:13:17;24.40;57.10
62363;DHT22;48396;48.426;1.500;2023-06-14T02:15:42;24.40;57.20
62363;DHT22;48396;48.426;1.500;2023-06-14T02:18:09;24.40;57.30
62363;DHT22;48396;48.426;1.500;2023-06-14T02:20:35;24.40;57.30
62363;DHT22;48396;48.426;1.500;2023-06-14T02:23:01;24.30;57.50
62363;DHT22;48396;48.426;1.500;2023-06-14T02:25:27;24.40;57.60
62363;DHT22;48396;48.426;1.500;2023-06-14T02:27:54;24.30;57.70
62363;DHT22;48396;48.426;1.500;2023-06-14T02:30:20;24.20;57.70
62363;DHT22;48396;48.426;1.500;2023-06-14T02:32:46;24.20;58.00
62363;DHT22;48396;48.426;1.500;2023-06-14T02:35:13;24.20;58.10
62363;DHT22;48396;48.426;1.500;2023-06-14T02:37:39;24.20;58.10
62363;DHT22;48396;48.426;1.500;2023-06-14T02:40:05;24.10;58.20
62363;DHT22;48396;48.426;1.500;2023-06-14T02:42:31;24.10;58.10
62363;DHT22;48396;48.426;1.500;2023-06-14T02:44:57;24.10;58.20
62363;DHT22;48396;48.426;1.500;2023-06-14T02:47:22;24.10;58.20
62363;DHT22;48396;48.426;1.500;2023-06-14T02:49:48;24.10;58.70
62363;DHT22;48396;48.426;1.500;2023-06-14T02:52:14;24.00;59.00
62363;DHT22;48396;48.426;1.500;2023-06-14T02:54:40;24.00;59.10
62363;DHT22;48396;48.426;1.500;2023-06-14T02:57:07;23.90;58.90
62363;DHT22;48396;48.426;1.500;2023-06-14T02:59:33;23.90;59.00
62363;DHT22;48396;48.426;1.500;2023-06-14T03:01:59;23.80;59.20
62363;DHT22;48396;48.426;1.500;2023-06-14T03:04:25;23.70;59.80
62363;DHT22;48396;48.426;1.500;2023-06-14T03:06:51;23.70;59.60
62363;DHT22;48396;48.426;1.500;2023-06-14T03:09:19;23.70;59.50
62363;DHT22;48396;48.426;1.500;2023-06-14T03:11:45;23.70;59.50
62363;DHT22;48396;48.426;1.500;2023-06-14T03:14:10;23.70;59.50
62363;DHT22;48396;48.426;1.500;2023-06-14T03:16:36;23.80;59.60
62363;DHT22;48396;48.426;1.500;2023-06-14T03:19:02;23.70;60.20
62363;DHT22;48396;48.426;1.500;2023-06-14T03:21:28;23.70;59.60
62363;DHT22;48396;48.426;1.500;2023-06-14T03:23:54;23.70;59.80
62363;DHT22;48396;48.426;1.500;2023-06-14T03:26:19;23.70;59.90
62363;DHT22;48396;48.426;1.500;2023-06-14T03:28:45;23.60;60.00
62363;DHT22;48396;48.426;1.500;2023-06-14T03:31:12;23.60;60.10
62363;DHT22;48396;48.426;1.500;2023-06-14T03:33:38;23.60;60.10
62363;DHT22;48396;48.426;1.500;2023-06-14T03:36:04;23.60;60.30
62363;DHT22;48396;48.426;1.500;2023-06-14T03:38:30;23.60;60.40
62363;DHT22;48396;48.426;1.500;2023-06-14T03:40:56;23.50;60.60
62363;DHT22;48396;48.426;1.500;2023-06-14T03:43:22;23.50;61.00
62363;DHT22;48396;48.426;1.500;2023-06-14T03:45:47;23.40;60.90
62363;DHT22;48396;48.426;1.500;2023-06-14T03:48:13;23.40;61.00
62363;DHT22;48396;48.426;1.500;2023-06-14T03:50:38;23.40;61.00
62363;DHT22;48396;48.426;1.500;2023-06-14T03:53:05;23.30;61.00
62363;DHT22;48396;48.426;1.500;2023-06-14T03:55:30;23.30;61.60
62363;DHT22;48396;48.426;1.500;2023-06-14T03:57:57;23.30;61.50
62363;DHT22;48396;48.426;1.500;2023-06-14T04:00:22;23.30;61.50
62363;DHT22;48396;48.426;1.500;2023-06-14T04:02:48;23.30;61.50
62363;DHT22;48396;48.426;1.500;2023-06-14T04:05:14;23.30;61.50
62363;DHT22;48396;48.426;1.500;2023-06-14T04:07:42;23.20;61.70
62363;DHT22;48396;48.426;1.500;2023-06-14T04:10:11;23.20;61.80
62363;DHT22;48396;48.426;1.500;2023-06-14T04:12:37;23.20;61.90
62363;DHT22;48396;48.426;1.500;2023-06-14T04:15:02;23.20;61.90
62363;DHT22;48396;48.426;1.500;2023-06-14T04:17:29;23.20;61.90
62363;DHT22;48396;48.426;1.500;2023-06-14T04:19:55;23.20;62.10
62363;DHT22;48396;48.426;1.500;2023-06-14T04:22:20;23.20;62.30
62363;DHT22;48396;48.426;1.500;2023-06-14T04:24:46;23.10;62.20
62363;DHT22;48396;48.426;1.500;2023-06-14T04:27:11;23.10;62.30
62363;DHT22;48396;48.426;1.500;2023-06-14T04:29:37;23.10;62.50
62363;DHT22;48396;48.426;1.500;2023-06-14T04:32:04;23.10;62.70
62363;DHT22;48396;48.426;1.500;2023-06-14T04:34:30;23.10;62.80
62363;DHT22;48396;48.426;1.500;2023-06-14T04:36:59;23.00;62.90
62363;DHT22;48396;48.426;1.500;2023-06-14T04:39:27;23.10;62.80
62363;DHT22;48396;48.426;1.500;2023-06-14T04:41:53;23.10;62.70
62363;DHT22;48396;48.426;1.500;2023-06-14T04:44:23;23.10;62.90
62363;DHT22;48396;48.426;1.500;2023-06-14T04:46:49;23.10;62.80
62363;DHT22;48396;48.426;1.500;2023-06-14T04:49:15;23.00;62.80
62363;DHT22;48396;48.426;1.500;2023-06-14T04:51:42;23.10;63.30
62363;DHT22;48396;48.426;1.500;2023-06-14T04:54:12;23.00;63.20
62363;DHT22;48396;48.426;1.500;2023-06-14T04:56:41;23.00;63.30
62363;DHT22;48396;48.426;1.500;2023-06-14T04:59:07;23.00;63.50
62363;DHT22;48396;48.426;1.500;2023-06-14T05:01:34;22.90;63.50
62363;DHT22;48396;48.426;1.500;2023-06-14T05:04:00;23.00;63.60
62363;DHT22;48396;48.426;1.500;2023-06-14T05:06:26;22.90;63.90
62363;DHT22;48396;48.426;1.500;2023-06-14T05:08:53;22.90;64.00
62363;DHT22;48396;48.426;1.500;2023-06-14T05:11:37;22.90;63.90
62363;DHT22;48396;48.426;1.500;2023-06-14T05:14:03;22.90;64.00
62363;DHT22;48396;48.426;1.500;2023-06-14T05:16:28;22.90;64.20
62363;DHT22;48396;48.426;1.500;2023-06-14T05:18:54;22.90;64.10
62363;DHT22;48396;48.426;1.500;2023-06-14T05:21:20;22.90;64.10
62363;DHT22;48396;48.426;1.500;2023-06-14T05:23:46;23.00;64.10
62363;DHT22;48396;48.426;1.500;2023-06-14T05:26:11;23.00;64.20
62363;DHT22;48396;48.426;1.500;2023-06-14T05:28:37;23.00;64.20
62363;DHT22;48396;48.426;1.500;2023-06-14T05:31:03;23.00;64.10
62363;DHT22;48396;48.426;1.500;2023-06-14T05:33:28;23.10;64.10
62363;DHT22;48396;48.426;1.500;2023-06-14T05:35:54;23.10;64.10
62363;DHT22;48396;48.426;1.500;2023-06-14T05:38:20;23.10;64.10
62363;DHT22;48396;48.426;1.500;2023-06-14T05:40:46;23.10;64.10
62363;DHT22;48396;48.426;1.500;2023-06-14T05:43:11;23.10;64.30
62363;DHT22;48396;48.426;1.500;2023-06-14T05:45:37;23.10;64.10
62363;DHT22;48396;48.426;1.500;2023-06-14T05:48:03;23.10;64.30
62363;DHT22;48396;48.426;1.500;2023-06-14T05:50:28;23.10;64.30
62363;DHT22;48396;48.426;1.500;2023-06-14T05:52:54;23.20;64.30
62363;DHT22;48396;48.426;1.500;2023-06-14T05:55:20;23.20;64.20
62363;DHT22;48396;48.426;1.500;2023-06-14T05:58:04;23.30;64.20
62363;DHT22;48396;48.426;1.500;2023-06-14T06:00:29;23.30;64.20
62363;DHT22;48396;48.426;1.500;2023-06-14T06:02:55;23.40;64.20
62363;DHT22;48396;48.426;1.500;2023-06-14T06:05:23;23.40;64.10
62363;DHT22;48396;48.426;1.500;2023-06-14T06:07:49;23.40;64.10
62363;DHT22;48396;48.426;1.500;2023-06-14T06:10:15;23.50;64.00
62363;DHT22;48396;48.426;1.500;2023-06-14T06:12:43;23.50;63.90
62363;DHT22;48396;48.426;1.500;2023-06-14T06:15:09;23.50;63.80
62363;DHT22;48396;48.426;1.500;2023-06-14T06:17:38;23.60;63.80
62363;DHT22;48396;48.426;1.500;2023-06-14T06:20:05;23.70;63.60
62363;DHT22;48396;48.426;1.500;2023-06-14T06:22:33;23.70;63.40
62363;DHT22;48396;48.426;1.500;2023-06-14T06:24:59;23.80;63.30
62363;DHT22;48396;48.426;1.500;2023-06-14T06:27:24;23.90;63.10
62363;DHT22;48396;48.426;1.500;2023-06-14T06:29:51;23.90;62.90
62363;DHT22;48396;48.426;1.500;2023-06-14T06:32:17;24.00;62.80
62363;DHT22;48396;48.426;1.500;2023-06-14T06:34:43;24.00;62.60
62363;DHT22;48396;48.426;1.500;2023-06-14T06:37:08;24.00;62.50
62363;DHT22;48396;48.426;1.500;2023-06-14T06:39:34;24.00;62.30
62363;DHT22;48396;48.426;1.500;2023-06-14T06:42:00;24.10;62.30
62363;DHT22;48396;48.426;1.500;2023-06-14T06:44:26;24.20;62.20
62363;DHT22;48396;48.426;1.500;2023-06-14T06:46:51;24.20;62.10
62363;DHT22;48396;48.426;1.500;2023-06-14T06:49:17;24.30;62.00
62363;DHT22;48396;48.426;1.500;2023-06-14T06:51:43;24.30;61.90
62363;DHT22;48396;48.426;1.500;2023-06-14T06:54:10;24.40;61.80
62363;DHT22;48396;48.426;1.500;2023-06-14T06:56:36;24.40;61.80
62363;DHT22;48396;48.426;1.500;2023-06-14T06:59:01;24.40;61.60
62363;DHT22;48396;48.426;1.500;2023-06-14T07:01:27;24.50;61.50
62363;DHT22;48396;48.426;1.500;2023-06-14T07:03:54;24.60;61.30
62363;DHT22;48396;48.426;1.500;2023-06-14T07:06:20;24.60;61.00
62363;DHT22;48396;48.426;1.500;2023-06-14T07:08:46;24.70;60.80
62363;DHT22;48396;48.426;1.500;2023-06-14T07:11:14;24.80;60.70
62363;DHT22;48396;48.426;1.500;2023-06-14T07:13:39;24.80;60.60
62363;DHT22;48396;48.426;1.500;2023-06-14T07:16:05;24.80;60.50
62363;DHT22;48396;48.426;1.500;2023-06-14T07:18:31;24.90;60.30
62363;DHT22;48396;48.426;1.500;2023-06-14T07:20:57;24.90;60.00
62363;DHT22;48396;48.426;1.500;2023-06-14T07:23:23;25.00;59.70
62363;DHT22;48396;48.426;1.500;2023-06-14T07:25:48;25.10;59.60
62363;DHT22;48396;48.426;1.500;2023-06-14T07:28:14;25.10;59.30
62363;DHT22;48396;48.426;1.500;2023-06-14T07:30:40;25.10;58.90
62363;DHT22;48396;48.426;1.500;2023-06-14T07:33:24;25.20;58.60
62363;DHT22;48396;48.426;1.500;2023-06-14T07:35:49;25.20;58.40
62363;DHT22;48396;48.426;1.500;2023-06-14T07:38:16;25.30;58.20
62363;DHT22;48396;48.426;1.500;2023-06-14T07:40:41;25.30;57.90
62363;DHT22;48396;48.426;1.500;2023-06-14T07:43:07;25.30;57.90
62363;DHT22;48396;48.426;1.500;2023-06-14T07:45:32;25.40;57.50
62363;DHT22;48396;48.426;1.500;2023-06-14T07:47:58;25.40;57.30
62363;DHT22;48396;48.426;1.500;2023-06-14T07:50:23;25.40;57.10
62363;DHT22;48396;48.426;1.500;2023-06-14T07:52:49;25.50;56.90
62363;DHT22;48396;48.426;1.500;2023-06-14T07:55:15;25.60;56.70
62363;DHT22;48396;48.426;1.500;2023-06-14T07:57:40;25.60;56.30
62363;DHT22;48396;48.426;1.500;2023-06-14T08:00:08;25.70;56.20
62363;DHT22;48396;48.426;1.500;2023-06-14T08:02:35;25.80;55.90
62363;DHT22;48396;48.426;1.500;2023-06-14T08:05:01;25.80;55.90
62363;DHT22;48396;48.426;1.500;2023-06-14T08:07:27;25.80;55.70
62363;DHT22;48396;48.426;1.500;2023-06-14T08:09:52;25.90;55.30
62363;DHT22;48396;48.426;1.500;2023-06-14T08:12:18;26.00;55.00
62363;DHT22;48396;48.426;1.500;2023-06-14T08:14:43;26.00;54.60
62363;DHT22;48396;48.426;1.500;2023-06-14T08:17:09;26.00;54.70
62363;DHT22;48396;48.426;1.500;2023-06-14T08:19:34;26.10;53.20
62363;DHT22;48396;48.426;1.500;2023-06-14T08:22:02;26.10;52.60
62363;DHT22;48396;48.426;1.500;2023-06-14T08:24:29;26.10;52.00
62363;DHT22;48396;48.426;1.500;2023-06-14T08:26:54;26.20;52.00
62363;DHT22;48396;48.426;1.500;2023-06-14T08:29:21;26.20;52.00
62363;DHT22;48396;48.426;1.500;2023-06-14T08:31:47;26.30;51.90
62363;DHT22;48396;48.426;1.500;2023-06-14T08:34:13;26.30;51.60
62363;DHT22;48396;48.426;1.500;2023-06-14T08:36:38;26.40;51.40
62363;DHT22;48396;48.426;1.500;2023-06-14T08:39:04;26.40;51.00
62363;DHT22;48396;48.426;1.500;2023-06-14T08:41:30;26.40;50.90
62363;DHT22;48396;48.426;1.500;2023-06-14T08:43:56;26.50;51.40
62363;DHT22;48396;48.426;1.500;2023-06-14T08:46:24;26.50;50.40
62363;DHT22;48396;48.426;1.500;2023-06-14T08:48:52;26.50;50.70
62363;DHT22;48396;48.426;1.500;2023-06-14T08:51:20;26.50;50.50
62363;DHT22;48396;48.426;1.500;2023-06-14T08:53:55;26.50;50.40
62363;DHT22;48396;48.426;1.500;2023-06-14T08:56:28;26.60;50.60
62363;DHT22;48396;48.426;1.500;2023-06-14T08:58:54;26.70;50.40
62363;DHT22;48396;48.426;1.500;2023-06-14T09:01:20;26.70;50.20
62363;DHT22;48396;48.426;1.500;2023-06-14T09:04:05;26.70;50.20
62363;DHT22;48396;48.426;1.500;2023-06-14T09:06:31;26.80;50.40
62363;DHT22;48396;48.426;1.500;2023-06-14T09:08:58;26.80;50.50
62363;DHT22;48396;48.426;1.500;2023-06-14T09:11:24;26.90;50.50
62363;DHT22;48396;48.426;1.500;2023-06-14T09:13:51;27.00;50.50
62363;DHT22;48396;48.426;1.500;2023-06-14T09:16:17;27.00;50.40
62363;DHT22;48396;48.426;1.500;2023-06-14T09:18:44;27.10;49.70
62363;DHT22;48396;48.426;1.500;2023-06-14T09:21:13;27.20;49.20
62363;DHT22;48396;48.426;1.500;2023-06-14T09:23:46;27.20;48.80
62363;DHT22;48396;48.426;1.500;2023-06-14T09:26:17;27.30;48.50
62363;DHT22;48396;48.426;1.500;2023-06-14T09:28:48;27.30;47.70
62363;DHT22;48396;48.426;1.500;2023-06-14T09:31:17;27.30;47.60
62363;DHT22;48396;48.426;1.500;2023-06-14T09:33:46;27.40;47.50
62363;DHT22;48396;48.426;1.500;2023-06-14T09:36:24;27.40;46.40
62363;DHT22;48396;48.426;1.500;2023-06-14T09:41:19;27.50;46.30
62363;DHT22;48396;48.426;1.500;2023-06-14T09:43:46;27.50;47.10
62363;DHT22;48396;48.426;1.500;2023-06-14T09:46:13;27.60;46.20
62363;DHT22;48396;48.426;1.500;2023-06-14T09:48:39;27.60;46.20
62363;DHT22;48396;48.426;1.500;2023-06-14T09:51:10;27.70;46.00
62363;DHT22;48396;48.426;1.500;2023-06-14T09:58:58;27.80;45.80
62363;DHT22;48396;48.426;1.500;2023-06-14T10:01:25;27.90;45.60
62363;DHT22;48396;48.426;1.500;2023-06-14T10:03:55;27.90;45.40
62363;DHT22;48396;48.426;1.500;2023-06-14T10:06:25;27.90;45.00
62363;DHT22;48396;48.426;1.500;2023-06-14T10:08:53;28.00;45.10
62363;DHT22;48396;48.426;1.500;2023-06-14T10:11:21;28.10;45.10
62363;DHT22;48396;48.426;1.500;2023-06-14T10:13:47;28.10;44.80
62363;DHT22;48396;48.426;1.500;2023-06-14T10:16:31;28.10;44.20
62363;DHT22;48396;48.426;1.500;2023-06-14T10:19:23;28.20;44.10
62363;DHT22;48396;48.426;1.500;2023-06-14T10:22:14;28.20;43.50
62363;DHT22;48396;48.426;1.500;2023-06-14T10:24:43;28.30;43.40
62363;DHT22;48396;48.426;1.500;2023-06-14T10:27:09;28.30;43.10
62363;DHT22;48396;48.426;1.500;2023-06-14T10:32:28;28.30;42.20
62363;DHT22;48396;48.426;1.500;2023-06-14T10:34:55;28.30;42.60
62363;DHT22;48396;48.426;1.500;2023-06-14T10:37:21;28.40;42.70
62363;DHT22;48396;48.426;1.500;2023-06-14T10:39:47;28.40;42.80
62363;DHT22;48396;48.426;1.500;2023-06-14T10:42:13;28.50;43.10
62363;DHT22;48396;48.426;1.500;2023-06-14T10:44:40;28.50;42.80
62363;DHT22;48396;48.426;1.500;2023-06-14T10:47:32;28.50;42.80
62363;DHT22;48396;48.426;1.500;2023-06-14T10:50:07;28.50;41.80
62363;DHT22;48396;48.426;1.500;2023-06-14T10:52:43;28.50;42.20
62363;DHT22;48396;48.426;1.500;2023-06-14T10:55:16;28.60;42.80
62363;DHT22;48396;48.426;1.500;2023-06-14T10:57:49;28.70;42.40
62363;DHT22;48396;48.426;1.500;2023-06-14T11:03:36;28.70;41.90
62363;DHT22;48396;48.426;1.500;2023-06-14T11:06:15;28.70;42.10
62363;DHT22;48396;48.426;1.500;2023-06-14T11:11:51;28.90;42.10
62363;DHT22;48396;48.426;1.500;2023-06-14T11:14:19;28.90;42.20
62363;DHT22;48396;48.426;1.500;2023-06-14T11:16:49;29.00;41.80
62363;DHT22;48396;48.426;1.500;2023-06-14T11:19:15;29.10;41.70
62363;DHT22;48396;48.426;1.500;2023-06-14T11:24:27;29.20;41.40
62363;DHT22;48396;48.426;1.500;2023-06-14T11:26:52;29.20;41.30
62363;DHT22;48396;48.426;1.500;2023-06-14T11:29:20;29.20;41.30
62363;DHT22;48396;48.426;1.500;2023-06-14T11:31:46;29.20;41.20
62363;DHT22;48396;48.426;1.500;2023-06-14T11:34:12;29.20;41.20
62363;DHT22;48396;48.426;1.500;2023-06-14T11:36:38;29.30;41.10
62363;DHT22;48396;48.426;1.500;2023-06-14T11:39:05;29.40;41.10
62363;DHT22;48396;48.426;1.500;2023-06-14T11:41:37;29.50;41.00
62363;DHT22;48396;48.426;1.500;2023-06-14T11:44:03;29.50;40.80
62363;DHT22;48396;48.426;1.500;2023-06-14T11:46:29;29.50;40.90
62363;DHT22;48396;48.426;1.500;2023-06-14T11:48:55;29.50;41.20
62363;DHT22;48396;48.426;1.500;2023-06-14T11:51:20;29.60;41.30
62363;DHT22;48396;48.426;1.500;2023-06-14T11:53:46;29.60;41.00
62363;DHT22;48396;48.426;1.500;2023-06-14T11:56:12;29.70;40.70
62363;DHT22;48396;48.426;1.500;2023-06-14T11:58:38;29.60;40.60
62363;DHT22;48396;48.426;1.500;2023-06-14T12:01:04;29.60;40.70
62363;DHT22;48396;48.426;1.500;2023-06-14T12:03:29;29.60;40.50
62363;DHT22;48396;48.426;1.500;2023-06-14T12:06:15;29.60;40.40
62363;DHT22;48396;48.426;1.500;2023-06-14T12:08:43;29.70;40.10
62363;DHT22;48396;48.426;1.500;2023-06-14T12:11:12;29.80;40.40
62363;DHT22;48396;48.426;1.500;2023-06-14T12:13:39;29.90;40.30
62363;DHT22;48396;48.426;1.500;2023-06-14T12:16:08;29.90;40.20
62363;DHT22;48396;48.426;1.500;2023-06-14T12:18:35;30.10;40.00
62363;DHT22;48396;48.426;1.500;2023-06-14T12:21:04;30.00;40.00
62363;DHT22;48396;48.426;1.500;2023-06-14T12:23:48;30.00;40.10
62363;DHT22;48396;48.426;1.500;2023-06-14T12:26:18;30.10;39.80
62363;DHT22;48396;48.426;1.500;2023-06-14T12:28:45;30.10;40.30
62363;DHT22;48396;48.426;1.500;2023-06-14T12:31:12;30.30;40.40
62363;DHT22;48396;48.426;1.500;2023-06-14T12:33:39;30.30;40.10
62363;DHT22;48396;48.426;1.500;2023-06-14T12:36:07;30.40;40.00
62363;DHT22;48396;48.426;1.500;2023-06-14T12:38:33;30.40;39.60
62363;DHT22;48396;48.426;1.500;2023-06-14T12:40:58;30.40;39.50
62363;DHT22;48396;48.426;1.500;2023-06-14T12:43:26;30.40;39.70
62363;DHT22;48396;48.426;1.500;2023-06-14T12:45:51;30.40;39.70
62363;DHT22;48396;48.426;1.500;2023-06-14T12:48:17;30.50;39.70
62363;DHT22;48396;48.426;1.500;2023-06-14T12:50:43;30.50;39.80
62363;DHT22;48396;48.426;1.500;2023-06-14T12:53:08;30.60;39.90
62363;DHT22;48396;48.426;1.500;2023-06-14T12:55:34;30.50;39.50
62363;DHT22;48396;48.426;1.500;2023-06-14T12:57:59;30.60;39.40
62363;DHT22;48396;48.426;1.500;2023-06-14T13:00:25;30.60;39.60
62363;DHT22;48396;48.426;1.500;2023-06-14T13:02:51;30.60;39.70
62363;DHT22;48396;48.426;1.500;2023-06-14T13:05:18;30.70;39.80
62363;DHT22;48396;48.426;1.500;2023-06-14T13:07:43;30.70;39.30
62363;DHT22;48396;48.426;1.500;2023-06-14T13:10:10;30.70;39.40
62363;DHT22;48396;48.426;1.500;2023-06-14T13:12:36;30.60;39.10
62363;DHT22;48396;48.426;1.500;2023-06-14T13:15:02;30.60;39.20
62363;DHT22;48396;48.426;1.500;2023-06-14T13:17:27;30.50;39.10
62363;DHT22;48396;48.426;1.500;2023-06-14T13:19:53;30.60;39.40
62363;DHT22;48396;48.426;1.500;2023-06-14T13:22:19;30.60;39.40
62363;DHT22;48396;48.426;1.500;2023-06-14T13:24:44;30.70;39.50
62363;DHT22;48396;48.426;1.500;2023-06-14T13:27:10;30.90;39.50
62363;DHT22;48396;48.426;1.500;2023-06-14T13:29:36;30.90;39.20
62363;DHT22;48396;48.426;1.500;2023-06-14T13:32:02;30.90;39.10
62363;DHT22;48396;48.426;1.500;2023-06-14T13:34:28;31.00;39.20
62363;DHT22;48396;48.426;1.500;2023-06-14T13:36:54;31.10;39.00
62363;DHT22;48396;48.426;1.500;2023-06-14T13:39:19;31.10;39.00
62363;DHT22;48396;48.426;1.500;2023-06-14T13:41:45;31.10;38.90
62363;DHT22;48396;48.426;1.500;2023-06-14T13:44:10;31.10;39.00
62363;DHT22;48396;48.426;1.500;2023-06-14T13:46:41;31.30;38.70
62363;DHT22;48396;48.426;1.500;2023-06-14T13:51:52;31.30;39.20
62363;DHT22;48396;48.426;1.500;2023-06-14T13:54:20;31.40;38.80
62363;DHT22;48396;48.426;1.500;2023-06-14T13:56:46;31.50;38.40
62363;DHT22;48396;48.426;1.500;2023-06-14T13:59:12;31.50;38.40
62363;DHT22;48396;48.426;1.500;2023-06-14T14:01:37;31.60;38.50
62363;DHT22;48396;48.426;1.500;2023-06-14T14:04:04;31.60;38.70
62363;DHT22;48396;48.426;1.500;2023-06-14T14:06:30;31.60;38.60
62363;DHT22;48396;48.426;1.500;2023-06-14T14:08:56;31.60;38.50
62363;DHT22;48396;48.426;1.500;2023-06-14T14:11:22;31.70;38.50
62363;DHT22;48396;48.426;1.500;2023-06-14T14:13:47;31.70;38.40
62363;DHT22;48396;48.426;1.500;2023-06-14T14:16:13;31.80;38.50
62363;DHT22;48396;48.426;1.500;2023-06-14T14:18:39;31.80;38.50
62363;DHT22;48396;48.426;1.500;2023-06-14T14:21:04;31.90;38.40
62363;DHT22;48396;48.426;1.500;2023-06-14T14:23:30;31.90;38.00
62363;DHT22;48396;48.426;1.500;2023-06-14T14:25:56;31.90;38.00
62363;DHT22;48396;48.426;1.500;2023-06-14T14:28:22;31.80;37.80
62363;DHT22;48396;48.426;1.500;2023-06-14T14:30:47;31.80;38.00
62363;DHT22;48396;48.426;1.500;2023-06-14T14:33:14;31.80;38.10
62363;DHT22;48396;48.426;1.500;2023-06-14T14:35:45;31.90;38.20
62363;DHT22;48396;48.426;1.500;2023-06-14T14:38:12;31.90;38.30
62363;DHT22;48396;48.426;1.500;2023-06-14T14:40:39;32.00;38.30
62363;DHT22;48396;48.426;1.500;2023-06-14T14:43:04;32.10;38.50
62363;DHT22;48396;48.426;1.500;2023-06-14T14:45:30;32.10;38.20
62363;DHT22;48396;48.426;1.500;2023-06-14T14:47:56;32.10;38.20
62363;DHT22;48396;48.426;1.500;2023-06-14T14:50:21;32.20;37.90
62363;DHT22;48396;48.426;1.500;2023-06-14T14:52:47;32.20;38.20
62363;DHT22;48396;48.426;1.500;2023-06-14T14:55:12;32.40;38.20
62363;DHT22;48396;48.426;1.500;2023-06-14T14:57:38;32.50;38.10
62363;DHT22;48396;48.426;1.500;2023-06-14T15:00:05;32.50;38.10
62363;DHT22;48396;48.426;1.500;2023-06-14T15:02:31;32.60;38.10
62363;DHT22;48396;48.426;1.500;2023-06-14T15:04:57;32.70;38.10
62363;DHT22;48396;48.426;1.500;2023-06-14T15:07:26;32.70;37.80
62363;DHT22;48396;48.426;1.500;2023-06-14T15:09:52;32.60;37.90
62363;DHT22;48396;48.426;1.500;2023-06-14T15:12:18;32.60;37.90
62363;DHT22;48396;48.426;1.500;2023-06-14T15:14:45;32.60;37.90
62363;DHT22;48396;48.426;1.500;2023-06-14T15:17:11;32.50;37.90
62363;DHT22;48396;48.426;1.500;2023-06-14T15:19:36;32.40;37.80
62363;DHT22;48396;48.426;1.500;2023-06-14T15:22:02;32.50;37.80
62363;DHT22;48396;48.426;1.500;2023-06-14T15:24:28;32.60;37.90
62363;DHT22;48396;48.426;1.500;2023-06-14T15:26:53;32.60;37.90
62363;DHT22;48396;48.426;1.500;2023-06-14T15:29:19;32.60;37.70
62363;DHT22;48396;48.426;1.500;2023-06-14T15:31:44;32.60;37.60
62363;DHT22;48396;48.426;1.500;2023-06-14T15:34:10;32.50;37.50
62363;DHT22;48396;48.426;1.500;2023-06-14T15:36:36;32.40;37.50
62363;DHT22;48396;48.426;1.500;2023-06-14T15:39:01;32.30;37.40
62363;DHT22;48396;48.426;1.500;2023-06-14T15:41:27;32.30;37.40
62363;DHT22;48396;48.426;1.500;2023-06-14T15:43:52;32.30;37.30
62363;DHT22;48396;48.426;1.500;2023-06-14T15:46:21;32.40;37.60
62363;DHT22;48396;48.426;1.500;2023-06-14T15:48:46;32.40;37.40
62363;DHT22;48396;48.426;1.500;2023-06-14T15:51:12;32.40;37.40
62363;DHT22;48396;48.426;1.500;2023-06-14T15:53:37;32.40;37.30